Time;durP1;ratioP1;P1;durP2;ratioP2;P2;SDS_P1;SDS_P2;PMS_P1;PMS_P2;Temp;Humidity;BMP_temperature;BMP_pressure;BME280_temperature;BME280_humidity;BME280_pressure;Samples;Min_cycle;Max_cycle;Signal;HPM_P1;HPM_P2
2021/09/14 00:00:22;;;;;;;1.20;0.80;;;;;;;12.33;100.00;101461.44;5038008;28;20474;-84
2021/09/14 00:02:49;;;;;;;1.27;1.17;;;;;;;12.34;100.00;101454.91;5037789;28;20482;-83
2021/09/14 00:05:16;;;;;;;1.07;1.00;;;;;;;12.32;100.00;101462.56;5037523;28;20447;-84
2021/09/14 00:07:42;;;;;;;1.63;1.03;;;;;;;12.32;100.00;101462.56;5037651;28;20454;-83
2021/09/14 00:10:09;;;;;;;1.13;0.60;;;;;;;12.35;100.00;101464.69;5037309;28;20463;-83
2021/09/14 00:12:37;;;;;;;1.20;1.00;;;;;;;12.42;100.00;101463.50;5037743;28;20442;-81
2021/09/14 00:15:05;;;;;;;1.20;1.00;;;;;;;12.41;100.00;101461.91;5037294;28;20451;-81
2021/09/14 00:17:32;;;;;;;1.20;0.77;;;;;;;12.47;100.00;101458.00;5038272;28;20431;-81
2021/09/14 00:19:58;;;;;;;2.03;0.83;;;;;;;12.52;100.00;101461.47;5037024;28;20837;-81
2021/09/14 00:22:25;;;;;;;1.43;0.90;;;;;;;12.58;100.00;101459.50;5037920;28;20475;-82
2021/09/14 00:24:51;;;;;;;1.80;1.33;;;;;;;12.61;100.00;101453.47;5042090;28;20940;-81
2021/09/14 00:27:18;;;;;;;2.20;1.40;;;;;;;12.70;100.00;101450.91;5040826;28;20808;-81
2021/09/14 00:29:45;;;;;;;1.57;1.00;;;;;;;12.56;100.00;101450.81;5040637;28;20466;-81
2021/09/14 00:32:12;;;;;;;1.30;1.03;;;;;;;12.51;100.00;101443.53;5044238;28;20435;-81
2021/09/14 00:34:38;;;;;;;1.40;1.20;;;;;;;12.58;100.00;101448.63;5044165;28;20443;-81
2021/09/14 00:37:05;;;;;;;1.73;1.20;;;;;;;12.67;100.00;101438.72;5044318;28;20432;-81
2021/09/14 00:39:31;;;;;;;2.10;1.47;;;;;;;12.69;100.00;101438.41;5042723;28;20467;-81
2021/09/14 00:41:58;;;;;;;1.40;1.20;;;;;;;12.68;100.00;101447.69;5042481;28;21023;-81
2021/09/14 00:44:25;;;;;;;1.40;1.07;;;;;;;12.64;100.00;101439.28;5042900;28;20450;-81
2021/09/14 00:46:52;;;;;;;1.17;0.90;;;;;;;12.52;100.00;101442.44;5041982;28;20477;-81
2021/09/14 00:49:19;;;;;;;2.93;0.97;;;;;;;12.35;100.00;101442.13;5042131;28;20443;-81
2021/09/14 00:51:45;;;;;;;1.10;1.00;;;;;;;12.30;100.00;101443.00;5041428;28;20434;-81
2021/09/14 00:54:15;;;;;;;2.17;1.13;;;;;;;12.41;100.00;101442.88;5041790;28;20446;-81
2021/09/14 00:56:41;;;;;;;3.47;1.33;;;;;;;12.27;100.00;101443.59;5040890;28;20454;-81
2021/09/14 00:59:08;;;;;;;3.00;1.37;;;;;;;12.11;100.00;101442.97;5040798;28;20443;-81
2021/09/14 01:01:34;;;;;;;0.93;0.70;;;;;;;12.04;100.00;101437.09;5040120;28;20479;-81
2021/09/14 01:04:04;;;;;;;1.43;1.03;;;;;;;11.85;100.00;101442.44;5040328;28;20450;-81
2021/09/14 01:06:31;;;;;;;1.67;1.37;;;;;;;11.77;100.00;101431.38;5039995;28;20439;-81
2021/09/14 01:09:00;;;;;;;1.20;1.10;;;;;;;11.89;100.00;101439.16;5040814;28;20435;-81
2021/09/14 01:11:26;;;;;;;4.40;1.97;;;;;;;12.01;100.00;101434.94;5039870;28;20459;-80
2021/09/14 01:14:01;;;;;;;1.20;0.90;;;;;;;12.05;100.00;101438.72;5040514;28;20447;-81
2021/09/14 01:16:30;;;;;;;0.83;0.57;;;;;;;12.00;100.00;101440.69;5040007;28;20411;-81
2021/09/14 01:18:56;;;;;;;1.73;1.10;;;;;;;12.03;100.00;101429.22;5040089;28;20431;-81
2021/09/14 01:21:24;;;;;;;1.43;1.00;;;;;;;12.02;100.00;101428.41;5110253;22;20863;-68
2021/09/14 01:23:52;;;;;;;2.70;1.40;;;;;;;12.06;100.00;101429.47;5096274;28;20439;-67
2021/09/14 01:26:19;;;;;;;1.13;1.00;;;;;;;12.09;100.00;101436.22;5096209;28;20497;-67
2021/09/14 01:28:45;;;;;;;1.43;0.90;;;;;;;11.98;100.00;101429.28;5096184;28;20444;-67
2021/09/14 01:31:11;;;;;;;2.70;1.70;;;;;;;12.03;100.00;101424.59;5095880;28;20436;-69
2021/09/14 01:33:38;;;;;;;1.27;0.90;;;;;;;12.03;100.00;101429.22;5096005;28;20494;-69
2021/09/14 01:36:05;;;;;;;3.17;1.50;;;;;;;12.04;100.00;101419.97;5095699;28;20456;-68
2021/09/14 01:38:32;;;;;;;1.10;0.93;;;;;;;11.97;100.00;101419.53;5096003;28;20467;-68
2021/09/14 01:40:59;;;;;;;0.80;0.73;;;;;;;11.91;100.00;101431.53;5095861;28;20490;-68
2021/09/14 01:43:26;;;;;;;2.50;1.73;;;;;;;11.89;100.00;101437.25;5095165;28;20461;-68
2021/09/14 01:45:52;;;;;;;1.57;1.20;;;;;;;11.93;100.00;101429.34;5095873;28;20461;-68
2021/09/14 01:48:19;;;;;;;1.20;1.10;;;;;;;11.95;100.00;101429.84;5095806;28;20441;-68
2021/09/14 01:50:46;;;;;;;2.27;1.13;;;;;;;11.85;100.00;101431.59;5095767;28;20467;-68
2021/09/14 01:53:12;;;;;;;3.10;1.37;;;;;;;11.72;100.00;101428.72;5095651;28;20468;-68
2021/09/14 01:55:39;;;;;;;3.70;1.40;;;;;;;11.52;100.00;101429.75;5095697;28;20533;-68
2021/09/14 01:58:07;;;;;;;13.10;1.77;;;;;;;11.34;100.00;101431.28;5095618;28;20451;-68
2021/09/14 02:00:36;;;;;;;1.50;1.20;;;;;;;11.23;100.00;101429.75;5095567;28;20437;-68
2021/09/14 02:03:16;;;;;;;1.30;1.20;;;;;;;11.07;100.00;101423.66;5095339;28;20488;-68
2021/09/14 02:39:03;;;;;;;5.40;1.13;;;;;;;11.34;100.00;101420.44;5094942;28;20796;-68
2021/09/14 02:41:44;;;;;;;7.40;2.83;;;;;;;11.33;100.00;101418.78;5094636;28;20559;-68
2021/09/14 02:44:28;;;;;;;1.80;1.23;;;;;;;11.34;100.00;101415.81;5094748;28;20482;-69
2021/09/14 03:00:36;;;;;;;1.43;1.17;;;;;;;10.83;100.00;101410.78;5094528;28;20409;-69
2021/09/14 03:03:05;;;;;;;2.03;1.50;;;;;;;10.84;100.00;101403.47;5094132;28;20484;-69
2021/09/14 03:05:32;;;;;;;4.43;2.27;;;;;;;10.90;100.00;101394.22;5094280;28;20443;-69
2021/09/14 03:07:58;;;;;;;1.13;1.03;;;;;;;10.85;100.00;101414.06;5094273;28;20455;-69
2021/09/14 03:10:25;;;;;;;2.23;1.60;;;;;;;10.80;100.00;101405.97;5094482;28;20440;-68
2021/09/14 03:12:51;;;;;;;1.87;1.50;;;;;;;10.76;100.00;101410.31;5093792;28;21000;-69
2021/09/14 03:15:18;;;;;;;1.03;0.70;;;;;;;10.77;100.00;101403.00;5093847;28;20933;-69
2021/09/14 03:17:44;;;;;;;1.67;1.13;;;;;;;10.80;100.00;101397.84;5094053;28;20474;-69
2021/09/14 03:20:13;;;;;;;2.40;1.60;;;;;;;10.81;100.00;101395.94;5093890;28;20453;-69
2021/09/14 03:22:40;;;;;;;5.77;2.10;;;;;;;10.67;100.00;101401.19;5093847;28;20485;-69
2021/09/14 03:25:08;;;;;;;6.53;1.70;;;;;;;10.78;100.00;101400.00;5094069;28;20439;-69
2021/09/14 03:27:34;;;;;;;1.83;1.60;;;;;;;10.93;100.00;101395.53;5093952;28;20472;-69
2021/09/14 03:30:01;;;;;;;1.47;1.13;;;;;;;10.98;100.00;101396.34;5093987;28;20440;-69
2021/09/14 03:32:27;;;;;;;4.40;1.90;;;;;;;11.01;100.00;101390.31;5093817;28;20459;-68
2021/09/14 03:34:54;;;;;;;1.60;1.27;;;;;;;10.98;100.00;101392.78;5093849;28;20448;-69
2021/09/14 03:37:22;;;;;;;2.43;1.60;;;;;;;10.89;100.00;101394.50;5093974;28;20444;-68
2021/09/14 03:39:48;;;;;;;8.33;1.40;;;;;;;10.81;100.00;101391.31;5093790;28;20453;-68
2021/09/14 03:42:14;;;;;;;5.57;2.10;;;;;;;10.71;100.00;101393.28;5093592;28;20484;-69
2021/09/14 03:44:41;;;;;;;1.47;1.20;;;;;;;10.68;100.00;101394.66;5093417;28;20436;-68
2021/09/14 03:47:07;;;;;;;2.80;2.10;;;;;;;10.69;100.00;101396.28;5093665;28;20444;-68
2021/09/14 03:49:34;;;;;;;3.20;1.10;;;;;;;10.58;100.00;101392.84;5093280;28;20972;-68
2021/09/14 03:52:00;;;;;;;5.70;1.77;;;;;;;10.49;100.00;101391.81;5093502;28;20487;-69
2021/09/14 03:54:28;;;;;;;2.20;1.50;;;;;;;10.49;100.00;101385.56;5093776;28;20456;-68
2021/09/14 03:56:55;;;;;;;8.23;1.50;;;;;;;10.57;100.00;101391.19;5093469;28;20445;-68
2021/09/14 03:59:21;;;;;;;1.90;1.10;;;;;;;10.69;100.00;101384.63;5093576;28;20526;-68
2021/09/14 04:01:51;;;;;;;3.23;1.27;;;;;;;10.74;100.00;101387.28;5093271;28;20460;-67
2021/09/14 04:04:21;;;;;;;2.50;1.43;;;;;;;10.74;100.00;101384.59;5093399;28;20452;-68
2021/09/14 04:07:11;;;;;;;3.30;1.43;;;;;;;10.77;100.00;101378.63;5093031;28;20547;-68
2021/09/14 04:09:39;;;;;;;2.20;1.87;;;;;;;10.77;100.00;101382.13;5093349;28;20433;-67
2021/09/14 04:12:06;;;;;;;5.20;1.13;;;;;;;10.79;100.00;101385.34;5092908;28;20999;-68
2021/09/14 04:14:33;;;;;;;1.53;1.20;;;;;;;10.83;100.00;101389.13;5093242;28;20468;-68
2021/09/14 04:16:59;;;;;;;1.60;1.17;;;;;;;10.66;100.00;101385.19;5093286;28;20452;-68
2021/09/14 04:19:27;;;;;;;1.73;1.33;;;;;;;10.48;100.00;101389.38;5093202;28;20448;-68
2021/09/14 04:21:53;;;;;;;2.20;1.37;;;;;;;10.39;99.35;101391.84;5092759;28;20996;-68
2021/09/14 04:24:19;;;;;;;1.97;1.00;;;;;;;10.23;98.70;101388.41;5093242;28;20452;-68
2021/09/14 04:26:47;;;;;;;1.03;0.93;;;;;;;10.12;99.14;101381.41;5092829;28;20841;-68
2021/09/14 04:29:14;;;;;;;3.07;1.23;;;;;;;9.98;100.00;101385.81;5092910;28;20970;-69
2021/09/14 04:31:40;;;;;;;3.50;1.50;;;;;;;10.02;100.00;101397.69;5092799;28;20510;-68
2021/09/14 04:34:07;;;;;;;1.03;0.93;;;;;;;10.13;100.00;101385.72;5093135;28;20440;-68
2021/09/14 04:36:33;;;;;;;1.13;0.67;;;;;;;10.21;100.00;101387.84;5092773;28;20933;-68
2021/09/14 04:38:59;;;;;;;2.33;1.23;;;;;;;10.21;100.00;101392.47;5093060;28;20444;-67
2021/09/14 04:41:26;;;;;;;2.47;1.43;;;;;;;10.13;100.00;101383.00;5093001;28;20512;-69
2021/09/14 04:44:46;;;;;;;1.63;1.33;;;;;;;10.06;100.00;101398.75;5092930;28;20487;-69
2021/09/14 04:47:14;;;;;;;2.17;1.47;;;;;;;10.07;100.00;101397.66;5091633;28;20455;-70
2021/09/14 04:49:40;;;;;;;2.03;1.50;;;;;;;10.13;100.00;101403.88;5092823;28;20444;-69
2021/09/14 04:52:08;;;;;;;1.83;1.07;;;;;;;10.22;100.00;101402.19;5092759;28;20503;-69
2021/09/14 04:54:34;;;;;;;1.73;1.53;;;;;;;10.28;100.00;101401.94;5093002;28;20534;-70
2021/09/14 04:57:01;;;;;;;3.03;1.83;;;;;;;10.26;100.00;101403.28;5092762;28;20452;-70
2021/09/14 04:59:27;;;;;;;0.97;0.87;;;;;;;10.07;100.00;101400.38;5092800;28;20471;-71
2021/09/14 05:01:54;;;;;;;1.60;1.50;;;;;;;10.09;100.00;101406.31;5092616;28;20854;-70
2021/09/14 05:04:22;;;;;;;5.67;1.93;;;;;;;10.21;100.00;101401.38;5092732;28;20443;-70
2021/09/14 05:06:48;;;;;;;2.63;1.17;;;;;;;10.20;100.00;101404.38;5092647;28;20440;-70
2021/09/14 05:09:15;;;;;;;4.57;1.80;;;;;;;10.13;100.00;101404.66;5092907;28;20436;-70
2021/09/14 05:11:41;;;;;;;1.97;1.47;;;;;;;10.14;100.00;101405.47;5092306;28;20977;-70
2021/09/14 05:14:08;;;;;;;1.03;0.87;;;;;;;10.13;100.00;101399.25;5092659;28;20467;-70
2021/09/14 05:16:34;;;;;;;2.50;1.10;;;;;;;10.12;100.00;101394.94;5092211;28;20456;-70
2021/09/14 05:19:02;;;;;;;11.53;3.47;;;;;;;10.10;100.00;101395.22;5096126;28;20444;-69
2021/09/14 05:21:31;;;;;;;1.87;1.73;;;;;;;10.17;100.00;101399.50;5096077;28;20831;-69
2021/09/14 05:23:58;;;;;;;3.20;1.53;;;;;;;10.21;100.00;101395.16;5096083;28;20484;-68
2021/09/14 05:26:26;;;;;;;3.50;2.00;;;;;;;10.37;100.00;101398.66;5095815;28;20436;-68
2021/09/14 05:28:52;;;;;;;2.73;1.80;;;;;;;10.39;100.00;101399.97;5096221;28;20454;-70
2021/09/14 05:31:19;;;;;;;2.90;1.57;;;;;;;10.32;100.00;101396.78;5096079;28;20444;-69
2021/09/14 05:33:46;;;;;;;4.53;2.70;;;;;;;10.46;100.00;101391.56;5096019;28;20814;-70
2021/09/14 05:36:13;;;;;;;2.10;1.90;;;;;;;10.59;100.00;101401.75;5096040;28;20480;-69
2021/09/14 05:38:42;;;;;;;8.20;1.90;;;;;;;10.60;100.00;101395.25;5095923;28;20436;-69
2021/09/14 05:41:09;;;;;;;2.50;1.90;;;;;;;10.70;100.00;101397.88;5095770;28;20441;-69
2021/09/14 05:43:35;;;;;;;2.53;2.30;;;;;;;10.79;100.00;101392.69;5095859;28;20484;-69
2021/09/14 05:46:02;;;;;;;3.03;2.00;;;;;;;10.86;100.00;101391.28;5095908;28;20440;-69
2021/09/14 05:48:28;;;;;;;2.63;2.30;;;;;;;10.97;100.00;101389.28;5095561;28;20941;-69
2021/09/14 05:50:55;;;;;;;1.43;1.20;;;;;;;11.00;100.00;101396.03;5095806;28;20440;-69
2021/09/14 05:53:21;;;;;;;1.43;1.20;;;;;;;10.94;100.00;101389.88;5095851;28;20453;-69
2021/09/14 05:55:49;;;;;;;1.87;1.67;;;;;;;10.99;100.00;101394.44;5095717;28;20446;-69
2021/09/14 05:58:15;;;;;;;2.13;1.17;;;;;;;11.01;100.00;101392.22;5095676;28;20443;-69
2021/09/14 06:00:42;;;;;;;1.17;0.70;;;;;;;11.06;100.00;101394.91;5095662;28;20440;-70
2021/09/14 06:03:08;;;;;;;2.13;1.80;;;;;;;11.08;100.00;101390.81;5095400;28;20485;-69
2021/09/14 06:05:35;;;;;;;2.60;1.13;;;;;;;11.10;100.00;101391.34;5095143;28;20452;-69
2021/09/14 06:08:01;;;;;;;1.50;0.83;;;;;;;11.17;100.00;101392.94;5095468;28;20448;-69
2021/09/14 06:10:28;;;;;;;1.27;1.10;;;;;;;11.32;100.00;101399.00;5094985;28;20848;-69
2021/09/14 06:12:57;;;;;;;2.63;1.60;;;;;;;11.41;100.00;101401.09;5095362;28;20468;-69
2021/09/14 06:15:23;;;;;;;1.10;1.00;;;;;;;11.46;100.00;101403.75;5095289;28;20441;-69
2021/09/14 06:17:50;;;;;;;3.10;1.73;;;;;;;11.62;100.00;101406.03;5095484;28;20437;-69
2021/09/14 06:20:16;;;;;;;3.43;1.97;;;;;;;11.71;100.00;101411.63;5094995;28;20452;-69
2021/09/14 06:22:43;;;;;;;2.47;1.20;;;;;;;11.83;100.00;101411.28;5094889;28;20485;-69
2021/09/14 06:25:10;;;;;;;2.23;2.03;;;;;;;11.96;100.00;101407.06;5094952;28;20447;-69
2021/09/14 06:27:37;;;;;;;1.27;1.17;;;;;;;12.12;100.00;101412.00;5094798;28;20498;-70
2021/09/14 06:30:06;;;;;;;2.27;1.43;;;;;;;12.26;100.00;101414.81;5094951;28;20444;-68
2021/09/14 06:32:32;;;;;;;1.90;1.30;;;;;;;12.41;100.00;101410.28;5094869;28;20486;-68
2021/09/14 06:34:59;;;;;;;1.70;1.07;;;;;;;12.56;100.00;101415.50;5094624;28;20440;-68
2021/09/14 06:37:29;;;;;;;1.47;1.37;;;;;;;12.72;100.00;101416.09;5094837;28;20440;-68
2021/09/14 06:39:55;;;;;;;2.67;1.70;;;;;;;12.89;100.00;101413.66;5095033;28;20452;-68
2021/09/14 06:42:24;;;;;;;2.80;1.93;;;;;;;13.02;100.00;101420.25;5094476;28;20819;-70
2021/09/14 06:44:50;;;;;;;3.37;2.47;;;;;;;13.17;100.00;101425.44;5094413;28;20853;-69
2021/09/14 06:47:18;;;;;;;6.20;2.03;;;;;;;13.32;100.00;101422.47;5094620;28;20436;-69
2021/09/14 06:49:44;;;;;;;6.23;2.50;;;;;;;13.43;100.00;101416.84;5094694;28;20444;-69
2021/09/14 06:52:11;;;;;;;5.53;3.07;;;;;;;13.51;100.00;101421.63;5094686;28;20464;-69
2021/09/14 06:54:38;;;;;;;1.90;1.60;;;;;;;13.62;100.00;101412.94;5094667;28;20436;-69
2021/09/14 06:57:05;;;;;;;6.37;2.80;;;;;;;13.77;100.00;101417.31;5094508;28;20447;-69
2021/09/14 06:59:31;;;;;;;7.47;2.50;;;;;;;13.87;100.00;101417.09;5094118;28;20942;-69
2021/09/14 07:01:58;;;;;;;3.20;2.23;;;;;;;13.99;100.00;101426.66;5094365;28;20564;-69
2021/09/14 07:04:26;;;;;;;3.87;1.90;;;;;;;14.05;100.00;101417.31;5094466;28;20488;-69
2021/09/14 07:06:52;;;;;;;3.53;2.03;;;;;;;14.21;100.00;101428.69;5094328;28;20448;-72
2021/09/14 07:09:19;;;;;;;4.23;1.80;;;;;;;14.31;100.00;101425.75;5094329;28;20437;-69
2021/09/14 07:11:52;;;;;;;11.97;3.53;;;;;;;14.40;100.00;101434.81;5095071;28;20509;-69
2021/09/14 07:14:18;;;;;;;4.00;2.73;;;;;;;14.53;100.00;101427.75;5094169;28;20957;-69
2021/09/14 07:16:44;;;;;;;3.23;2.23;;;;;;;14.61;100.00;101424.31;5093829;28;20960;-69
2021/09/14 07:19:11;;;;;;;6.17;2.20;;;;;;;14.70;100.00;101422.47;5093986;28;20448;-69
2021/09/14 07:21:39;;;;;;;5.77;2.37;;;;;;;14.78;100.00;101423.63;5093779;28;20457;-68
2021/09/14 07:24:06;;;;;;;7.50;2.90;;;;;;;14.87;100.00;101427.22;5093639;28;20537;-68
2021/09/14 07:26:33;;;;;;;5.07;2.80;;;;;;;14.96;100.00;101424.56;5093661;28;20448;-69
2021/09/14 07:28:59;;;;;;;4.13;2.13;;;;;;;15.04;100.00;101421.09;5093898;28;20441;-70
2021/09/14 07:31:29;;;;;;;7.30;2.97;;;;;;;15.11;100.00;101427.75;5093813;28;20440;-70
2021/09/14 07:33:56;;;;;;;4.23;2.87;;;;;;;15.22;100.00;101424.75;5093971;28;20425;-70
2021/09/14 07:36:22;;;;;;;2.53;1.60;;;;;;;15.31;100.00;101428.34;5093486;28;20445;-71
2021/09/14 07:38:50;;;;;;;3.57;2.50;;;;;;;15.39;100.00;101424.84;5093679;28;20441;-71
2021/09/14 07:41:16;;;;;;;6.17;2.43;;;;;;;15.41;100.00;101433.56;5092875;28;20957;-70
2021/09/14 07:43:43;;;;;;;4.23;2.73;;;;;;;15.46;100.00;101421.69;5093534;28;20480;-70
2021/09/14 07:46:10;;;;;;;4.17;3.17;;;;;;;15.52;100.00;101421.22;5093682;28;20441;-70
2021/09/14 07:48:36;;;;;;;6.70;2.57;;;;;;;15.61;100.00;101421.28;5093564;28;20476;-70
2021/09/14 07:51:03;;;;;;;4.13;2.20;;;;;;;15.65;100.00;101425.03;5093571;28;20475;-70
2021/09/14 07:53:29;;;;;;;7.30;2.50;;;;;;;15.70;100.00;101427.63;5093147;28;20969;-70
2021/09/14 07:55:57;;;;;;;4.37;2.03;;;;;;;15.75;100.00;101423.94;5093522;28;20440;-70
2021/09/14 07:58:24;;;;;;;4.90;2.20;;;;;;;15.85;100.00;101429.13;5093521;28;20444;-70
2021/09/14 08:00:50;;;;;;;5.60;2.77;;;;;;;15.94;100.00;101424.50;5093077;28;20443;-70
2021/09/14 08:03:16;;;;;;;6.07;2.67;;;;;;;15.99;100.00;101431.75;5092953;28;20511;-70
2021/09/14 08:05:43;;;;;;;8.73;2.87;;;;;;;16.07;100.00;101431.78;5093351;28;20444;-70
2021/09/14 08:08:09;;;;;;;5.70;3.30;;;;;;;16.17;100.00;101436.16;5093391;28;20459;-70
2021/09/14 08:10:37;;;;;;;4.70;2.70;;;;;;;16.26;100.00;101433.44;5093301;28;20445;-70
2021/09/14 08:13:05;;;;;;;3.37;2.30;;;;;;;16.30;99.90;101426.22;5093219;28;20460;-70
2021/09/14 08:15:32;;;;;;;5.00;2.27;;;;;;;16.37;99.00;101430.06;5093289;28;20448;-70
2021/09/14 08:17:59;;;;;;;4.27;2.67;;;;;;;16.47;98.00;101425.41;5092916;28;20822;-70
2021/09/14 08:20:25;;;;;;;3.30;1.70;;;;;;;16.56;97.49;101426.25;5093024;28;20459;-70
2021/09/14 08:22:52;;;;;;;10.20;2.57;;;;;;;16.58;97.39;101424.78;5093070;28;20456;-70
2021/09/14 08:25:18;;;;;;;3.37;2.17;;;;;;;16.71;97.08;101427.69;5093086;28;20512;-72
2021/09/14 08:27:45;;;;;;;8.73;1.83;;;;;;;16.88;95.55;101424.97;5093210;28;20450;-69
2021/09/14 08:30:13;;;;;;;6.90;2.90;;;;;;;17.07;94.21;101424.63;5092743;28;20436;-70
2021/09/14 08:32:39;;;;;;;4.87;2.50;;;;;;;17.20;92.31;101434.59;5092979;28;20467;-70
2021/09/14 08:35:06;;;;;;;5.20;2.70;;;;;;;17.32;91.34;101432.00;5093045;28;20432;-70
2021/09/14 08:37:33;;;;;;;3.47;1.93;;;;;;;17.47;90.70;101433.41;5093088;28;20436;-70
2021/09/14 08:39:59;;;;;;;2.33;1.83;;;;;;;17.59;90.02;101427.25;5093057;28;20440;-70
2021/09/14 08:42:26;;;;;;;5.10;2.13;;;;;;;17.68;88.70;101428.03;5093021;28;20463;-70
2021/09/14 08:44:52;;;;;;;6.10;2.33;;;;;;;17.81;88.93;101435.25;5092927;28;20480;-69
2021/09/14 08:47:22;;;;;;;5.10;2.03;;;;;;;17.90;87.43;101427.00;5092974;28;20440;-70
2021/09/14 08:49:49;;;;;;;6.07;1.80;;;;;;;17.95;86.47;101424.06;5092640;28;20436;-70
2021/09/14 08:52:16;;;;;;;3.73;2.27;;;;;;;17.98;86.48;101420.69;5094041;28;20456;-70
2021/09/14 08:54:43;;;;;;;2.57;1.43;;;;;;;18.08;86.46;101414.81;5096869;28;20468;-70
2021/09/14 08:57:09;;;;;;;4.60;2.40;;;;;;;18.17;86.71;101414.75;5096784;28;20444;-70
2021/09/14 08:59:35;;;;;;;5.50;2.00;;;;;;;18.21;86.13;101407.47;5096736;28;20486;-70
2021/09/14 09:02:03;;;;;;;6.50;2.40;;;;;;;18.32;83.35;101414.16;5096696;28;20471;-70
2021/09/14 09:04:31;;;;;;;2.50;2.10;;;;;;;18.39;85.44;101417.19;5096265;28;20484;-70
2021/09/14 09:06:58;;;;;;;4.50;1.60;;;;;;;18.47;86.39;101418.28;5096687;28;20436;-70
2021/09/14 09:09:26;;;;;;;2.70;1.80;;;;;;;18.55;85.49;101420.16;5096645;28;20448;-69
2021/09/14 09:11:57;;;;;;;2.90;1.60;;;;;;;18.60;85.66;101419.94;5096430;28;20494;-69
2021/09/14 09:14:35;;;;;;;2.37;1.70;;;;;;;18.69;83.66;101416.34;5096578;28;20437;-69
2021/09/14 09:17:10;;;;;;;4.63;1.77;;;;;;;18.70;82.54;101413.28;5096463;28;20471;-68
2021/09/14 09:19:38;;;;;;;3.47;2.27;;;;;;;18.73;83.39;101412.63;5096297;28;20481;-68
2021/09/14 09:22:06;;;;;;;4.33;2.00;;;;;;;18.78;83.75;101419.84;5096323;28;20463;-69
2021/09/14 09:24:44;;;;;;;2.80;1.80;;;;;;;18.85;81.33;101414.59;5096210;28;20522;-70
2021/09/14 09:27:12;;;;;;;1.83;1.30;;;;;;;18.93;81.64;101416.47;5096304;28;20420;-70
2021/09/14 09:29:38;;;;;;;7.53;2.03;;;;;;;19.00;82.05;101408.50;5096232;28;20443;-70
2021/09/14 09:32:06;;;;;;;1.73;1.53;;;;;;;19.02;80.01;101408.13;5096084;28;20460;-69
2021/09/14 09:34:32;;;;;;;5.27;1.73;;;;;;;19.01;80.71;101418.31;5096113;28;20443;-70
2021/09/14 09:37:05;;;;;;;5.07;2.23;;;;;;;19.12;81.00;101410.44;5097129;28;20961;-70
2021/09/14 09:39:44;;;;;;;2.30;2.00;;;;;;;19.22;80.39;101407.31;5095984;28;20483;-70
2021/09/14 09:42:12;;;;;;;3.47;2.30;;;;;;;19.25;79.77;101414.84;5096054;28;20464;-72
2021/09/14 09:44:39;;;;;;;2.80;1.67;;;;;;;19.29;79.63;101403.97;5095817;28;20479;-70
2021/09/14 09:47:06;;;;;;;2.63;1.47;;;;;;;19.32;79.39;101408.81;5095654;28;20960;-70
2021/09/14 09:49:33;;;;;;;2.17;1.57;;;;;;;19.34;77.10;101407.31;5095506;28;20930;-72
2021/09/14 09:52:00;;;;;;;6.10;1.73;;;;;;;19.44;79.05;101408.84;5095714;28;20472;-69
2021/09/14 09:54:29;;;;;;;4.63;1.53;;;;;;;19.55;78.83;101401.75;5095891;28;20459;-69
2021/09/14 09:56:56;;;;;;;2.90;1.63;;;;;;;19.68;77.12;101401.78;5095905;28;20543;-69
2021/09/14 09:59:23;;;;;;;3.83;2.10;;;;;;;19.82;76.35;101403.03;5095759;28;20428;-69
2021/09/14 10:02:16;;;;;;;2.50;1.30;;;;;;;19.88;77.59;101398.94;5095607;28;20496;-69
2021/09/14 10:04:48;;;;;;;3.30;1.53;;;;;;;19.89;77.51;101400.53;5094649;28;20514;-69
2021/09/14 10:07:15;;;;;;;3.90;1.40;;;;;;;19.88;79.80;101407.19;5095678;28;20421;-68
2021/09/14 10:09:54;;;;;;;3.93;1.80;;;;;;;19.93;78.18;101405.34;5095558;28;20436;-68
2021/09/14 10:12:28;;;;;;;1.40;1.30;;;;;;;20.01;78.69;101399.72;5095431;28;20875;-69
2021/09/14 10:15:05;;;;;;;6.30;1.97;;;;;;;20.06;77.73;101406.94;5095581;28;20455;-69
2021/09/14 10:17:33;;;;;;;3.57;1.50;;;;;;;20.19;75.71;101408.53;5095018;28;20455;-71
2021/09/14 10:20:11;;;;;;;2.30;2.00;;;;;;;20.26;72.17;101399.69;5095313;28;20461;-69
2021/09/14 10:22:38;;;;;;;3.50;1.40;;;;;;;20.24;73.16;101402.78;5095207;28;20462;-69
2021/09/14 10:25:08;;;;;;;6.13;2.27;;;;;;;20.33;73.76;101395.22;5095137;28;20484;-70
2021/09/14 10:27:37;;;;;;;1.50;1.20;;;;;;;20.40;74.19;101395.41;5095013;28;20437;-70
2021/09/14 10:30:05;;;;;;;3.47;1.97;;;;;;;20.53;74.84;101392.66;5095004;28;20440;-69
2021/09/14 10:32:41;;;;;;;2.00;1.60;;;;;;;20.60;75.27;101392.88;5094879;28;21072;-69
2021/09/14 10:35:10;;;;;;;3.03;1.97;;;;;;;20.62;72.79;101390.56;5095245;28;20448;-69
2021/09/14 10:37:37;;;;;;;3.47;1.93;;;;;;;20.77;71.02;101395.34;5094532;28;20834;-69
2021/09/14 10:40:11;;;;;;;2.90;1.70;;;;;;;20.88;69.80;101395.63;5094918;28;20449;-69
2021/09/14 10:42:40;;;;;;;3.27;1.87;;;;;;;20.99;70.60;101390.41;5094657;28;20566;-67
2021/09/14 10:45:09;;;;;;;3.10;2.00;;;;;;;21.07;69.16;101395.78;5094699;28;20541;-68
2021/09/14 10:47:40;;;;;;;4.17;1.97;;;;;;;21.16;70.60;101387.31;5094668;28;20451;-72
2021/09/14 10:50:08;;;;;;;2.80;1.60;;;;;;;21.24;70.56;101378.09;5094454;28;20448;-69
2021/09/14 10:52:36;;;;;;;2.93;1.70;;;;;;;21.42;69.22;101387.63;5094571;28;20518;-69
2021/09/14 10:55:10;;;;;;;2.27;1.60;;;;;;;21.56;68.57;101380.88;5094544;28;20441;-68
2021/09/14 10:57:38;;;;;;;5.83;2.53;;;;;;;21.74;67.46;101389.63;5094239;28;20472;-67
2021/09/14 11:00:08;;;;;;;2.00;1.80;;;;;;;21.85;66.41;101388.69;5092441;28;20449;-69
2021/09/14 11:02:34;;;;;;;11.63;2.10;;;;;;;21.82;66.69;101381.13;5094667;28;20484;-67
2021/09/14 11:05:02;;;;;;;4.40;2.43;;;;;;;21.70;65.59;101378.50;5094506;28;20477;-69
2021/09/14 11:07:30;;;;;;;1.87;1.60;;;;;;;21.59;67.82;101377.41;5094459;28;20448;-69
2021/09/14 11:09:58;;;;;;;5.10;1.90;;;;;;;21.71;66.88;101371.81;5094214;28;20949;-69
2021/09/14 11:12:27;;;;;;;3.17;1.10;;;;;;;22.26;66.18;101383.72;5094144;28;20522;-67
2021/09/14 11:14:55;;;;;;;3.40;1.97;;;;;;;23.19;62.84;101384.81;5093347;28;20449;-68
2021/09/14 11:17:27;;;;;;;9.17;2.60;;;;;;;24.39;60.47;101388.75;5094121;28;20433;-70
2021/09/14 11:19:55;;;;;;;4.83;1.53;;;;;;;24.88;58.28;101393.28;5094022;28;20458;-69
2021/09/14 11:22:32;;;;;;;6.33;2.53;;;;;;;25.66;55.41;101373.81;5094014;28;20464;-70
2021/09/14 11:24:58;;;;;;;2.53;1.77;;;;;;;25.54;55.25;101385.22;5093747;28;20467;-69
2021/09/14 11:27:27;;;;;;;4.67;1.97;;;;;;;24.95;52.65;101383.44;5094013;28;20445;-69
2021/09/14 11:29:55;;;;;;;2.57;1.67;;;;;;;24.42;57.43;101387.97;5093945;28;20432;-69
2021/09/14 11:32:22;;;;;;;4.47;2.57;;;;;;;23.95;57.89;101377.41;5093779;28;20475;-69
2021/09/14 11:34:52;;;;;;;3.57;1.83;;;;;;;24.86;57.56;101376.22;5093692;28;20447;-69
2021/09/14 11:37:26;;;;;;;2.30;2.10;;;;;;;26.39;52.34;101368.34;5093801;28;20481;-70
2021/09/14 11:39:52;;;;;;;2.20;1.53;;;;;;;27.53;48.92;101373.38;5093788;28;20424;-70
2021/09/14 11:42:20;;;;;;;2.60;1.80;;;;;;;28.40;46.48;101381.19;5093569;28;20467;-70
2021/09/14 11:44:47;;;;;;;3.37;1.50;;;;;;;28.46;44.76;101370.41;5093640;28;20480;-70
2021/09/14 11:47:14;;;;;;;3.07;1.63;;;;;;;28.36;44.41;101376.84;5093705;28;20444;-70
2021/09/14 11:49:51;;;;;;;1.90;1.60;;;;;;;28.99;44.88;101374.16;5093648;28;20853;-70
2021/09/14 11:52:18;;;;;;;2.50;2.13;;;;;;;28.71;45.16;101367.53;5093568;28;20492;-70
2021/09/14 11:54:45;;;;;;;1.70;1.60;;;;;;;28.20;46.12;101368.09;5093575;28;20437;-70
2021/09/14 11:57:16;;;;;;;3.40;1.80;;;;;;;27.33;48.81;101363.84;5093528;28;20440;-69
2021/09/14 11:59:42;;;;;;;2.00;1.80;;;;;;;26.58;50.11;101363.66;5093230;28;20795;-70
2021/09/14 12:02:10;;;;;;;1.50;1.20;;;;;;;26.56;50.25;101352.13;5093121;28;21008;-70
2021/09/14 12:04:36;;;;;;;4.40;2.57;;;;;;;27.40;50.35;101358.25;5093499;28;20507;-70
2021/09/14 12:07:03;;;;;;;2.70;2.50;;;;;;;28.45;45.28;101368.03;5093343;28;20948;-70
2021/09/14 12:09:29;;;;;;;3.23;2.23;;;;;;;29.07;42.93;101358.97;5093427;28;20824;-70